Time;durP1;ratioP1;P1;durP2;ratioP2;P2;SDS_P1;SDS_P2;PMS_P1;PMS_P2;Temp;Humidity;BMP_temperature;BMP_pressure;BME280_temperature;BME280_humidity;BME280_pressure;Samples;Min_cycle;Max_cycle;Signal;HPM_P1;HPM_P2
2021/03/23 00:01:06;;;;;;;7.00;3.75;;;;;;;0.27;75.04;98699.31;1792910;78;21427;-56
2021/03/23 00:03:39;;;;;;;8.78;4.00;;;;;;;0.31;75.04;98699.44;1792472;78;22262;-56
2021/03/23 00:06:08;;;;;;;7.60;3.70;;;;;;;0.33;75.02;98700.61;1814705;78;21056;-56
2021/03/23 00:08:48;;;;;;;6.42;3.60;;;;;;;0.33;74.94;98688.36;1792782;78;21104;-56
2021/03/23 00:11:41;;;;;;;9.65;3.87;;;;;;;0.34;74.89;98682.16;1800078;78;21099;-57
2021/03/23 00:14:12;;;;;;;9.23;3.77;;;;;;;0.37;74.76;98691.06;1800806;78;22126;-55
2021/03/23 00:16:42;;;;;;;5.70;3.45;;;;;;;0.39;74.77;98684.42;1807869;78;21559;-56
2021/03/23 00:19:10;;;;;;;6.35;3.50;;;;;;;0.39;74.71;98681.80;1792579;77;21121;-56
2021/03/23 00:21:38;;;;;;;6.58;3.62;;;;;;;0.43;74.61;98683.20;1807622;78;20968;-56
2021/03/23 00:24:07;;;;;;;5.92;4.20;;;;;;;0.47;74.55;98684.63;1806252;78;21142;-55
2021/03/23 00:26:34;;;;;;;9.15;4.67;;;;;;;0.49;74.35;98684.02;1800535;78;22273;-55
2021/03/23 00:29:02;;;;;;;13.05;5.42;;;;;;;0.51;74.27;98686.02;1792180;78;21552;-55
2021/03/23 00:31:32;;;;;;;8.73;4.22;;;;;;;0.51;74.29;98684.70;1771961;79;21069;-56
2021/03/23 00:34:04;;;;;;;7.95;3.50;;;;;;;0.52;74.38;98671.48;1771909;79;21049;-55
2021/03/23 00:36:39;;;;;;;6.53;4.37;;;;;;;0.53;74.12;98673.63;1772129;79;21156;-56
2021/03/23 00:39:08;;;;;;;7.28;3.90;;;;;;;0.52;73.98;98675.91;1772135;79;22272;-56
2021/03/23 00:41:38;;;;;;;8.30;4.35;;;;;;;0.49;74.04;98676.16;1771924;79;21136;-56
2021/03/23 00:44:07;;;;;;;7.03;4.58;;;;;;;0.48;74.12;98677.10;1771978;79;21034;-55
2021/03/23 00:46:34;;;;;;;7.70;4.55;;;;;;;0.48;74.22;98675.80;1771897;79;21632;-55
2021/03/23 00:49:02;;;;;;;9.20;4.55;;;;;;;0.47;74.21;98674.95;1772104;79;21151;-55
2021/03/23 00:51:31;;;;;;;8.08;4.70;;;;;;;0.48;74.21;98674.48;1772066;79;21713;-55
2021/03/23 00:53:58;;;;;;;8.68;4.60;;;;;;;0.49;74.23;98676.16;1798218;79;21001;-55
2021/03/23 00:56:26;;;;;;;6.62;3.85;;;;;;;0.47;74.25;98672.84;1789702;79;21112;-56
2021/03/23 00:58:53;;;;;;;6.62;4.00;;;;;;;0.45;74.15;98674.73;1795826;79;21203;-55
2021/03/23 01:01:21;;;;;;;7.30;3.95;;;;;;;0.43;74.09;98678.80;1803627;79;21040;-56
2021/03/23 01:03:50;;;;;;;7.03;4.37;;;;;;;0.41;74.01;98678.10;1803621;79;21253;-55
2021/03/23 01:06:18;;;;;;;7.65;4.65;;;;;;;0.41;73.96;98674.17;1781279;79;21152;-55
2021/03/23 01:08:45;;;;;;;9.05;4.80;;;;;;;0.39;73.90;98671.34;1784104;79;21017;-55
2021/03/23 01:11:13;;;;;;;6.47;4.75;;;;;;;0.39;73.92;98670.03;1771717;79;21076;-56
2021/03/23 01:13:41;;;;;;;4.58;3.65;;;;;;;0.38;73.89;98672.28;1771837;79;21144;-56
2021/03/23 01:16:08;;;;;;;6.78;3.67;;;;;;;0.37;73.99;98665.38;1784309;79;21456;-56
2021/03/23 01:18:38;;;;;;;5.78;3.17;;;;;;;0.36;74.12;98667.19;1789973;79;21074;-56
2021/03/23 01:21:06;;;;;;;5.40;3.62;;;;;;;0.32;74.29;98667.06;1712232;79;21202;-55
2021/03/23 01:23:33;;;;;;;6.50;3.40;;;;;;;0.31;74.34;98656.74;1708351;82;21126;-55
2021/03/23 01:26:01;;;;;;;4.65;3.05;;;;;;;0.29;74.33;98664.70;1676982;84;21155;-55
2021/03/23 01:28:28;;;;;;;4.87;3.12;;;;;;;0.27;74.45;98663.16;1742423;81;21338;-56
2021/03/23 01:30:56;;;;;;;4.65;3.17;;;;;;;0.26;74.57;98657.59;1741245;81;21089;-56
2021/03/23 01:33:24;;;;;;;5.55;3.05;;;;;;;0.25;74.69;98654.62;1741303;81;21049;-56
2021/03/23 01:35:52;;;;;;;8.48;3.27;;;;;;;0.25;74.73;98654.15;1741202;81;21144;-55
2021/03/23 01:38:19;;;;;;;4.85;3.20;;;;;;;0.26;74.79;98651.86;1742906;81;21067;-56
2021/03/23 01:40:48;;;;;;;4.12;2.92;;;;;;;0.27;74.92;98646.16;1740242;81;21409;-56
2021/03/23 01:43:28;;;;;;;4.53;2.75;;;;;;;0.28;74.98;98647.36;1741534;81;21138;-55
2021/03/23 01:45:57;;;;;;;4.95;3.45;;;;;;;0.28;74.96;98645.22;1741389;81;21056;-56
2021/03/23 01:48:28;;;;;;;4.70;2.67;;;;;;;0.27;75.07;98639.62;1741578;81;21589;-56
2021/03/23 01:51:06;;;;;;;4.25;2.75;;;;;;;0.28;75.22;98641.29;1744370;81;21032;-56
2021/03/23 01:53:39;;;;;;;4.62;2.95;;;;;;;0.27;75.21;98637.84;1741659;81;21366;-57
2021/03/23 01:56:08;;;;;;;7.17;3.22;;;;;;;0.24;75.26;98638.09;1739135;81;20989;-57
2021/03/23 01:58:37;;;;;;;3.33;2.60;;;;;;;0.20;75.37;98645.02;1741940;81;21139;-55
2021/03/23 02:01:10;;;;;;;5.45;3.10;;;;;;;0.19;75.58;98643.34;1744209;81;21190;-55
2021/03/23 02:03:39;;;;;;;6.95;2.92;;;;;;;0.17;75.85;98640.86;1741700;81;20961;-56
2021/03/23 02:06:38;;;;;;;4.78;2.65;;;;;;;0.18;76.01;98640.39;1745078;81;21401;-56
2021/03/23 02:09:15;;;;;;;;;;;;;;;0.18;76.21;98639.08;1747956;81;21036;-56
2021/03/23 02:11:47;;;;;;;3.72;1.87;;;;;;;0.20;76.50;98638.47;1726751;81;27602;-56
2021/03/23 02:14:15;;;;;;;3.10;2.30;;;;;;;0.21;76.66;98640.95;1743446;81;21151;-56
2021/03/23 02:16:44;;;;;;;3.70;2.40;;;;;;;0.24;76.80;98638.09;1741446;81;21151;-55
2021/03/23 02:19:12;;;;;;;4.12;2.45;;;;;;;0.28;76.96;98632.13;1741968;81;22128;-56
2021/03/23 02:21:40;;;;;;;3.12;2.10;;;;;;;0.32;77.07;98640.06;1726392;81;21145;-57
2021/03/23 02:24:13;;;;;;;3.52;2.22;;;;;;;0.35;77.20;98638.52;1723105;81;21153;-56
2021/03/23 02:26:40;;;;;;;4.08;2.70;;;;;;;0.38;77.29;98640.88;1725795;81;21162;-56
2021/03/23 02:29:17;;;;;;;3.67;2.37;;;;;;;0.41;77.58;98640.63;1731756;81;21739;-56
2021/03/23 02:31:49;;;;;;;3.25;2.27;;;;;;;0.44;77.87;98645.11;1719788;81;21379;-56
2021/03/23 02:34:22;;;;;;;3.25;2.20;;;;;;;0.47;78.21;98637.52;1658409;83;21152;-56
2021/03/23 02:36:50;;;;;;;6.08;2.30;;;;;;;0.50;78.61;98638.08;1673515;83;21105;-56
2021/03/23 02:39:21;;;;;;;4.40;2.40;;;;;;;0.53;78.98;98636.52;1678659;83;21026;-56
2021/03/23 02:41:49;;;;;;;4.45;2.50;;;;;;;0.54;79.44;98636.87;1680719;84;21517;-55
2021/03/23 02:44:16;;;;;;;4.03;2.47;;;;;;;0.54;79.91;98632.11;1709528;83;21384;-56
2021/03/23 02:46:45;;;;;;;4.45;2.75;;;;;;;0.56;80.36;98634.95;1701395;83;21043;-56
2021/03/23 02:49:12;;;;;;;4.17;2.52;;;;;;;0.58;80.79;98633.50;1701499;83;20999;-56
2021/03/23 02:51:40;;;;;;;4.10;2.75;;;;;;;0.59;81.13;98632.56;1682842;83;21213;-56
2021/03/23 02:54:07;;;;;;;4.92;2.45;;;;;;;0.62;81.51;98629.69;1672947;85;21116;-56
2021/03/23 02:56:36;;;;;;;4.33;2.80;;;;;;;0.64;81.73;98631.69;1704043;83;21400;-56
2021/03/23 02:59:03;;;;;;;3.12;2.00;;;;;;;0.64;81.98;98629.08;1697150;83;21654;-55
2021/03/23 03:01:33;;;;;;;3.15;2.00;;;;;;;0.65;82.29;98635.98;1695055;83;21081;-55
2021/03/23 03:04:04;;;;;;;3.22;1.95;;;;;;;0.64;82.54;98631.69;1697716;83;20998;-55
2021/03/23 03:06:32;;;;;;;3.27;1.90;;;;;;;0.65;82.90;98632.05;1706848;83;21156;-55
2021/03/23 03:09:01;;;;;;;3.25;2.00;;;;;;;0.67;83.26;98625.37;1696669;83;21216;-55
2021/03/23 03:11:29;;;;;;;3.42;2.00;;;;;;;0.66;83.54;98628.45;1681174;83;20981;-57
2021/03/23 03:13:57;;;;;;;2.33;2.05;;;;;;;0.69;83.95;98622.14;1690426;83;21116;-55
2021/03/23 03:16:24;;;;;;;3.08;2.10;;;;;;;0.69;84.24;98628.20;1673707;85;21176;-57
2021/03/23 03:18:52;;;;;;;2.50;2.12;;;;;;;0.72;84.54;98623.19;1680979;85;21262;-56
2021/03/23 03:21:20;;;;;;;2.37;1.95;;;;;;;0.73;84.70;98628.28;1682051;83;21363;-56
2021/03/23 03:23:47;;;;;;;3.77;2.05;;;;;;;0.75;84.91;98622.94;1656329;83;21170;-56
2021/03/23 03:26:15;;;;;;;5.62;2.12;;;;;;;0.74;85.12;98620.80;1675516;83;21163;-56
2021/03/23 03:28:50;;;;;;;4.37;2.02;;;;;;;0.71;85.42;98618.42;1675531;83;21195;-56
2021/03/23 03:31:14;;;;;;;2.72;2.45;;;;;;;0.72;85.62;98620.10;1675631;83;21638;-56
2021/03/23 03:33:42;;;;;;;2.80;2.08;;;;;;;0.74;85.77;98622.10;1675454;83;21208;-56
2021/03/23 03:36:12;;;;;;;3.98;2.15;;;;;;;0.77;85.80;98627.08;1674839;83;21187;-56
2021/03/23 03:38:40;;;;;;;3.17;2.27;;;;;;;0.76;85.86;98624.10;1675572;83;21135;-57
2021/03/23 03:41:08;;;;;;;3.33;2.47;;;;;;;0.75;85.94;98626.39;1676080;83;21076;-56
2021/03/23 03:43:36;;;;;;;5.10;2.33;;;;;;;0.75;86.08;98626.86;1675720;83;21139;-56
2021/03/23 03:46:04;;;;;;;2.67;2.10;;;;;;;0.76;86.14;98625.41;1675590;83;21373;-56
2021/03/23 03:48:31;;;;;;;3.87;2.10;;;;;;;0.79;86.14;98623.02;1676508;83;21623;-56
2021/03/23 03:50:59;;;;;;;5.17;3.12;;;;;;;0.78;86.07;98622.21;1663218;83;21080;-56
2021/03/23 03:53:27;;;;;;;4.25;2.62;;;;;;;0.78;86.25;98624.00;1675584;83;21076;-56
2021/03/23 03:55:55;;;;;;;3.30;2.25;;;;;;;0.78;86.27;98617.45;1675579;83;21123;-56
2021/03/23 03:58:22;;;;;;;3.87;2.72;;;;;;;0.77;86.34;98617.09;1675644;83;21334;-57
2021/03/23 04:00:50;;;;;;;3.47;2.60;;;;;;;0.76;86.37;98621.48;1675782;83;21179;-56
2021/03/23 04:03:23;;;;;;;3.30;2.17;;;;;;;0.75;86.37;98620.32;1675587;83;21085;-56
2021/03/23 04:05:52;;;;;;;4.35;2.35;;;;;;;0.76;86.45;98622.80;1675503;83;21527;-56
2021/03/23 04:08:23;;;;;;;3.60;2.65;;;;;;;0.76;86.58;98620.17;1675677;83;21092;-56
2021/03/23 04:10:53;;;;;;;4.58;3.05;;;;;;;0.78;86.66;98626.61;1675867;83;21654;-55
2021/03/23 04:13:20;;;;;;;2.52;2.30;;;;;;;0.78;86.64;98626.61;1673621;83;20969;-57
2021/03/23 04:15:49;;;;;;;3.12;2.40;;;;;;;0.77;86.66;98627.56;1675661;83;20957;-55
2021/03/23 04:18:22;;;;;;;3.05;2.45;;;;;;;0.77;86.73;98629.70;1675590;83;21585;-55
2021/03/23 04:20:53;;;;;;;3.05;2.33;;;;;;;0.76;86.71;98633.27;1687952;83;21506;-56
2021/03/23 04:23:30;;;;;;;5.67;2.87;;;;;;;0.77;86.82;98635.41;1711386;82;22300;-57
2021/03/23 04:25:59;;;;;;;3.90;2.50;;;;;;;0.77;86.80;98636.25;1708446;82;21149;-56
2021/03/23 04:28:26;;;;;;;3.95;2.67;;;;;;;0.78;86.87;98633.99;1676980;84;21159;-56
2021/03/23 04:30:54;;;;;;;4.50;2.42;;;;;;;0.79;86.86;98636.94;1747426;81;21155;-56
2021/03/23 04:33:24;;;;;;;3.35;2.62;;;;;;;0.76;86.86;98635.89;1746910;81;21134;-56
2021/03/23 04:36:04;;;;;;;4.67;2.47;;;;;;;0.77;86.96;98630.17;1726408;82;22259;-56
2021/03/23 04:38:35;;;;;;;4.95;2.80;;;;;;;0.77;86.93;98629.70;1708023;82;21031;-57
2021/03/23 04:41:09;;;;;;;5.15;2.17;;;;;;;0.80;87.01;98630.76;1676770;84;21655;-56
2021/03/23 04:43:46;;;;;;;4.72;2.55;;;;;;;0.84;86.91;98632.14;1741328;81;21037;-55
2021/03/23 04:46:15;;;;;;;3.75;3.08;;;;;;;0.84;86.77;98636.08;1741303;81;21156;-56
2021/03/23 04:48:42;;;;;;;3.30;2.50;;;;;;;0.83;86.83;98637.05;1741034;81;22289;-55
2021/03/23 04:51:11;;;;;;;4.47;3.17;;;;;;;0.85;86.88;98635.13;1741789;81;21008;-56
2021/03/23 04:53:40;;;;;;;3.95;2.90;;;;;;;0.88;86.79;98632.73;1707687;82;21711;-56
2021/03/23 04:56:15;;;;;;;4.10;2.85;;;;;;;0.87;86.68;98632.36;1689027;82;21086;-55
2021/03/23 04:58:42;;;;;;;5.33;3.20;;;;;;;0.88;86.78;98636.18;1706572;82;21079;-56
2021/03/23 05:01:10;;;;;;;4.67;3.70;;;;;;;0.88;86.76;98638.80;1704881;82;21212;-56
2021/03/23 05:03:39;;;;;;;3.87;3.47;;;;;;;0.86;86.59;98642.00;1705157;82;20964;-56
2021/03/23 05:06:08;;;;;;;5.00;3.52;;;;;;;0.85;86.69;98641.67;1705244;82;21024;-55
2021/03/23 05:08:41;;;;;;;4.28;3.40;;;;;;;0.86;86.79;98639.89;1705419;82;21162;-56
2021/03/23 05:11:10;;;;;;;3.17;2.87;;;;;;;0.87;86.84;98643.67;1705417;82;21066;-56
2021/03/23 05:13:38;;;;;;;3.70;2.87;;;;;;;0.85;86.71;98650.84;1704915;82;21370;-56
2021/03/23 05:16:06;;;;;;;4.47;3.52;;;;;;;0.85;86.87;98647.38;1678711;85;21673;-56
2021/03/23 05:18:35;;;;;;;4.92;3.95;;;;;;;0.85;86.92;98653.93;1708639;82;21154;-56
2021/03/23 05:21:03;;;;;;;6.45;4.62;;;;;;;0.85;87.03;98650.00;1699735;83;21244;-56
2021/03/23 05:23:30;;;;;;;5.35;4.10;;;;;;;0.86;87.09;98658.22;1681699;83;21180;-56
2021/03/23 05:25:58;;;;;;;5.78;4.12;;;;;;;0.90;87.16;98658.30;1650288;86;21382;-55
2021/03/23 05:28:25;;;;;;;5.75;3.52;;;;;;;0.93;87.00;98658.87;1680721;84;21220;-56
2021/03/23 05:30:54;;;;;;;4.53;3.22;;;;;;;0.93;86.88;98653.64;1675482;83;21103;-56
2021/03/23 05:33:22;;;;;;;5.60;3.95;;;;;;;0.95;86.84;98654.80;1676164;83;21090;-56
2021/03/23 05:35:51;;;;;;;4.30;3.50;;;;;;;0.98;86.83;98659.79;1675542;83;21092;-56
2021/03/23 05:38:19;;;;;;;7.22;4.20;;;;;;;0.98;86.77;98653.24;1675501;83;21297;-56
2021/03/23 05:40:50;;;;;;;7.17;4.55;;;;;;;0.99;86.78;98654.41;1675398;83;21187;-57
2021/03/23 05:43:41;;;;;;;7.58;5.05;;;;;;;1.00;86.80;98657.39;1675877;83;21015;-57
2021/03/23 05:46:30;;;;;;;13.28;7.90;;;;;;;1.02;86.81;98658.55;1658807;83;38373;-57
2021/03/23 05:49:30;;;;;;;17.87;9.05;;;;;;;1.06;86.71;98662.59;1675469;83;21167;-56
2021/03/23 05:52:14;;;;;;;20.57;11.10;;;;;;;1.10;86.63;98660.05;1676326;83;21025;-56
2021/03/23 05:54:59;;;;;;;18.67;10.43;;;;;;;1.12;86.37;98656.33;1674136;83;21641;-56
2021/03/23 05:57:34;;;;;;;19.98;11.25;;;;;;;1.15;86.34;98657.86;1675458;83;21024;-55
2021/03/23 06:00:23;;;;;;;20.33;10.03;;;;;;;1.14;86.19;98657.06;1670356;83;21143;-56
2021/03/23 06:02:59;;;;;;;17.27;9.30;;;;;;;1.16;86.20;98656.91;1674720;83;21195;-56
2021/03/23 06:05:45;;;;;;;19.07;10.50;;;;;;;1.18;86.08;98661.53;1651334;85;22089;-55
2021/03/23 06:08:27;;;;;;;17.85;10.30;;;;;;;1.22;86.01;98661.16;1658933;83;21164;-57
2021/03/23 06:11:10;;;;;;;17.67;9.43;;;;;;;1.25;85.81;98668.73;1674153;83;21011;-56
2021/03/23 06:14:12;;;;;;;14.70;8.48;;;;;;;1.32;85.64;98662.50;1821415;78;28207;-56
2021/03/23 06:16:52;;;;;;;20.05;9.75;;;;;;;1.28;85.55;98665.53;1781049;79;20946;-56
2021/03/23 06:19:44;;;;;;;19.15;10.10;;;;;;;1.27;85.61;98673.03;1790385;79;21389;-56
2021/03/23 06:22:40;;;;;;;17.87;10.68;;;;;;;1.27;85.71;98671.72;1781378;79;21165;-58
2021/03/23 06:25:33;;;;;;;14.25;8.70;;;;;;;1.23;85.85;98671.97;1778114;79;21009;-56
2021/03/23 06:28:39;;;;;;;15.48;9.00;;;;;;;1.20;85.99;98676.64;1793658;77;21064;-55
2021/03/23 06:31:28;;;;;;;10.68;7.95;;;;;;;1.17;85.94;98675.61;1735207;82;21000;-57
2021/03/23 06:33:57;;;;;;;10.10;8.60;;;;;;;1.14;86.19;98681.95;1733598;82;21378;-60
2021/03/23 06:36:29;;;;;;;12.35;8.28;;;;;;;1.13;86.42;98685.52;1729646;82;21033;-58
2021/03/23 06:38:57;;;;;;;16.87;8.68;;;;;;;1.15;86.46;98689.30;1728421;81;21142;-58
2021/03/23 06:41:30;;;;;;;12.73;8.60;;;;;;;1.15;86.42;98683.59;1734663;82;21083;-57
2021/03/23 06:44:16;;;;;;;13.60;8.58;;;;;;;1.17;86.34;98688.72;1735462;81;21060;-56
2021/03/23 06:46:50;;;;;;;13.10;7.10;;;;;;;1.14;86.32;98685.88;1730527;81;21538;-57
2021/03/23 06:49:31;;;;;;;14.20;7.05;;;;;;;1.12;86.45;98693.02;1718789;81;21893;-58
2021/03/23 06:52:05;;;;;;;6.83;4.33;;;;;;;1.13;86.64;98687.30;1717306;81;21096;-56
2021/03/23 06:54:36;;;;;;;12.03;7.25;;;;;;;1.15;86.68;98696.69;1710410;81;21162;-56
2021/03/23 06:57:16;;;;;;;7.53;4.80;;;;;;;1.15;86.66;98698.00;1734349;81;21062;-58
2021/03/23 07:00:03;;;;;;;11.85;5.80;;;;;;;1.14;86.84;98695.52;1721421;82;21393;-56
2021/03/23 07:02:43;;;;;;;11.65;6.62;;;;;;;1.13;87.17;98694.69;1725832;82;21579;-56
2021/03/23 07:05:36;;;;;;;8.50;6.12;;;;;;;1.17;87.56;98697.37;1729959;82;21570;-58
2021/03/23 07:08:15;;;;;;;6.17;4.80;;;;;;;1.22;87.86;98699.63;1736999;82;21164;-57
2021/03/23 07:10:55;;;;;;;6.37;4.67;;;;;;;1.28;87.86;98701.70;1732343;82;21116;-60
2021/03/23 07:13:30;;;;;;;9.30;3.67;;;;;;;1.37;87.92;98704.03;1745201;81;21475;-56
2021/03/23 07:16:17;;;;;;;2.62;2.42;;;;;;;1.44;87.68;98698.13;1783000;79;21167;-60
2021/03/23 07:18:46;;;;;;;4.33;3.20;;;;;;;1.51;87.41;98697.14;1786926;79;21614;-58
2021/03/23 07:21:30;;;;;;;5.90;3.58;;;;;;;1.55;87.14;98696.73;1778695;79;21577;-57
2021/03/23 07:24:13;;;;;;;4.75;3.60;;;;;;;1.57;87.06;98698.73;1771994;79;21173;-57
2021/03/23 07:26:42;;;;;;;4.78;3.72;;;;;;;1.64;87.06;98695.11;1779384;79;21200;-56
2021/03/23 07:29:15;;;;;;;6.40;3.87;;;;;;;1.73;86.94;98702.16;1759201;81;21784;-56
2021/03/23 07:32:12;;;;;;;6.03;4.70;;;;;;;1.80;86.80;98702.80;1792873;79;21550;-58
2021/03/23 07:35:02;;;;;;;11.75;5.12;;;;;;;1.91;86.43;98698.41;1769668;79;21152;-58
2021/03/23 07:37:49;;;;;;;9.25;5.47;;;;;;;2.02;86.07;98695.20;1773246;79;21199;-57
2021/03/23 07:40:37;;;;;;;7.97;5.00;;;;;;;2.12;85.88;98690.79;1771649;79;21198;-57
2021/03/23 07:43:10;;;;;;;6.60;4.35;;;;;;;2.27;85.24;98695.98;1776925;78;21121;-57
2021/03/23 07:46:06;;;;;;;5.72;3.92;;;;;;;2.42;84.46;98700.36;1793600;79;21021;-57
2021/03/23 07:48:53;;;;;;;4.78;3.35;;;;;;;2.45;83.58;98698.78;1772736;79;21156;-55
2021/03/23 07:51:32;;;;;;;6.72;4.15;;;;;;;2.49;83.13;98700.14;1792676;79;21149;-60
2021/03/23 07:54:23;;;;;;;4.97;3.37;;;;;;;2.59;82.81;98697.51;1772353;79;21645;-56
2021/03/23 07:57:05;;;;;;;6.50;3.60;;;;;;;2.64;82.19;98707.11;1777463;79;20968;-57
2021/03/23 08:00:14;;;;;;;3.12;2.37;;;;;;;2.64;81.59;98711.88;1830840;78;28336;-58
2021/03/23 08:02:51;;;;;;;7.17;2.62;;;;;;;2.54;81.52;98716.31;1802986;79;20967;-58
2021/03/23 08:05:45;;;;;;;;;;;;;;;2.42;81.70;98725.30;1791504;78;22598;-59
2021/03/23 08:09:05;;;;;;;2.27;2.02;;;;;;;2.30;82.07;98740.33;1806998;79;20155;-58
2021/03/23 08:11:54;;;;;;;2.15;1.75;;;;;;;2.15;82.40;98741.69;1665303;83;21127;-56
2021/03/23 08:14:52;;;;;;;2.52;1.65;;;;;;;1.76;82.13;98748.63;1791953;79;21538;-58
2021/03/23 08:17:23;;;;;;;;;;;;;;;1.52;82.95;98737.63;1809846;79;21099;-56
2021/03/23 08:20:16;;;;;;;5.15;1.77;;;;;;;1.33;83.75;98746.69;1802183;78;21146;-57
2021/03/23 08:23:01;;;;;;;3.02;1.50;;;;;;;1.25;84.30;98749.16;1810842;79;21088;-57
2021/03/23 08:26:04;;;;;;;4.65;2.37;;;;;;;1.21;84.94;98748.58;1805650;78;20974;-56
2021/03/23 08:29:07;;;;;;;1.92;1.75;;;;;;;1.33;85.38;98751.13;1744873;82;21200;-57
2021/03/23 08:31:46;;;;;;;3.55;1.47;;;;;;;1.46;85.27;98753.06;1771371;80;21021;-57
2021/03/23 08:34:39;;;;;;;1.42;1.22;;;;;;;1.64;84.50;98754.11;1757183;80;21200;-57
2021/03/23 08:37:41;;;;;;;1.62;1.15;;;;;;;1.78;83.26;98753.73;1686683;80;21111;-58
2021/03/23 08:40:23;;;;;;;3.67;1.27;;;;;;;1.97;82.16;98751.66;1764484;80;21005;-58
2021/03/23 08:42:51;;;;;;;1.65;1.50;;;;;;;2.14;80.11;98752.34;1752655;80;21021;-56
2021/03/23 08:45:35;;;;;;;1.45;1.22;;;;;;;2.24;78.23;98750.05;1756285;80;21221;-58
2021/03/23 08:48:15;;;;;;;3.10;1.30;;;;;;;2.27;76.83;98760.28;1774405;80;21386;-57
2021/03/23 08:50:44;;;;;;;2.25;1.45;;;;;;;2.31;76.61;98756.44;1751459;80;21033;-58
2021/03/23 08:53:33;;;;;;;1.12;0.93;;;;;;;2.37;75.11;98755.07;1760501;80;21637;-56
2021/03/23 08:56:05;;;;;;;2.20;1.10;;;;;;;2.44;74.63;98770.62;1760979;80;21638;-59
2021/03/23 08:58:48;;;;;;;1.35;1.10;;;;;;;2.57;73.82;98765.09;1735575;81;21153;-57
2021/03/23 09:01:37;;;;;;;1.92;1.30;;;;;;;2.82;73.71;98770.62;1737366;82;21349;-57
2021/03/23 09:04:31;;;;;;;1.05;0.98;;;;;;;3.23;71.97;98758.98;1733847;82;21202;-55
2021/03/23 09:07:19;;;;;;;1.70;0.85;;;;;;;3.63;68.41;98767.92;1764553;80;21033;-56
2021/03/23 09:09:52;;;;;;;1.02;0.93;;;;;;;3.93;67.88;98762.41;1744547;80;21660;-58
2021/03/23 09:12:43;;;;;;;1.15;0.90;;;;;;;4.38;66.31;98757.98;1742811;80;21248;-58
2021/03/23 09:15:27;;;;;;;2.30;0.88;;;;;;;4.90;63.89;98753.70;1780230;80;21150;-60
2021/03/23 09:18:15;;;;;;;0.70;0.60;;;;;;;5.35;61.27;98756.68;1775927;80;21907;-58
2021/03/23 09:20:49;;;;;;;1.42;0.90;;;;;;;5.87;59.58;98762.30;1774794;80;20935;-56
2021/03/23 09:23:25;;;;;;;1.65;1.00;;;;;;;6.42;58.70;98753.91;1743690;80;21160;-58
2021/03/23 09:25:56;;;;;;;1.52;1.10;;;;;;;7.07;57.92;98745.55;1781461;80;21105;-61
2021/03/23 09:28:46;;;;;;;2.12;1.15;;;;;;;7.49;53.58;98746.19;1779951;79;21574;-57
2021/03/23 09:31:33;;;;;;;1.82;0.98;;;;;;;7.71;52.69;98743.33;1774928;80;21092;-58
2021/03/23 09:33:58;;;;;;;1.75;1.10;;;;;;;7.87;49.60;98741.44;1780877;80;21306;-61
2021/03/23 09:36:47;;;;;;;5.05;1.47;;;;;;;7.99;50.21;98733.96;1781288;80;21587;-60
2021/03/23 09:39:23;;;;;;;1.00;0.80;;;;;;;8.26;49.49;98729.55;1761609;80;21464;-60
2021/03/23 09:42:33;;;;;;;1.77;0.82;;;;;;;8.45;48.48;98729.61;1817505;78;23110;-64
2021/03/23 09:45:15;;;;;;;1.85;1.10;;;;;;;8.58;47.81;98734.67;1793287;77;21083;-66
2021/03/23 09:48:02;;;;;;;1.30;1.07;;;;;;;8.84;47.50;98726.89;1789199;79;21418;-62
2021/03/23 09:50:57;;;;;;;3.62;1.67;;;;;;;8.97;44.95;98735.87;1795725;79;21048;-61
2021/03/23 09:53:38;;;;;;;2.35;1.30;;;;;;;9.01;45.40;98733.70;1785138;79;21488;-60
2021/03/23 09:56:13;;;;;;;2.42;1.47;;;;;;;9.26;45.63;98733.81;1784501;79;21514;-60
2021/03/23 09:58:41;;;;;;;1.05;0.60;;;;;;;9.41;43.75;98729.88;1784612;79;20970;-61
2021/03/23 10:01:20;;;;;;;3.75;1.20;;;;;;;9.27;41.95;98728.84;1792521;79;22268;-61
2021/03/23 10:03:51;;;;;;;1.10;1.00;;;;;;;9.12;42.34;98730.14;1747143;80;20976;-60
2021/03/23 10:06:31;;;;;;;2.55;1.05;;;;;;;9.11;42.33;98735.61;1765964;79;21061;-62
2021/03/23 10:09:07;;;;;;;2.87;1.15;;;;;;;9.23;41.59;98733.67;1716820;81;21029;-59
2021/03/23 10:11:42;;;;;;;1.30;1.10;;;;;;;9.45;42.11;98730.66;1747336;80;21144;-58
2021/03/23 10:14:30;;;;;;;1.52;0.98;;;;;;;9.61;41.63;98731.83;1744483;81;21359;-57
2021/03/23 10:17:21;;;;;;;2.72;1.05;;;;;;;9.61;40.25;98734.48;1708583;81;21151;-60
2021/03/23 10:19:53;;;;;;;1.57;0.80;;;;;;;9.37;39.98;98736.04;1747589;79;21494;-61
2021/03/23 10:22:31;;;;;;;2.25;1.30;;;;;;;9.03;39.72;98743.63;1753837;81;20929;-59
2021/03/23 10:25:00;;;;;;;1.47;1.02;;;;;;;8.45;40.34;98745.52;1740701;81;21151;-59
2021/03/23 10:27:35;;;;;;;2.05;1.20;;;;;;;7.98;41.06;98746.38;1761440;79;21946;-61
2021/03/23 10:30:35;;;;;;;1.32;0.85;;;;;;;7.68;41.73;98755.58;1749531;79;21441;-59
2021/03/23 10:33:22;;;;;;;2.10;1.10;;;;;;;7.39;41.99;98758.28;1763376;79;21187;-60
2021/03/23 10:35:59;;;;;;;1.95;1.10;;;;;;;6.94;42.09;98752.67;1734098;80;21183;-60
2021/03/23 10:38:33;;;;;;;2.87;1.77;;;;;;;6.44;42.70;98757.23;1745342;81;21127;-61
2021/03/23 10:41:20;;;;;;;3.55;1.57;;;;;;;6.02;42.64;98755.95;1746162;81;21551;-59
2021/03/23 10:43:53;;;;;;;2.08;1.20;;;;;;;5.91;48.54;98754.41;1728005;81;20981;-59
2021/03/23 10:46:34;;;;;;;1.52;0.93;;;;;;;6.10;44.50;98762.58;1750547;80;21128;-56
2021/03/23 10:49:32;;;;;;;3.72;1.02;;;;;;;5.99;44.16;98761.05;1827211;77;21044;-60
2021/03/23 10:52:05;;;;;;;2.22;0.95;;;;;;;5.80;44.31;98763.89;1778899;80;26500;-62
2021/03/23 10:54:36;;;;;;;3.12;2.77;;;;;;;5.66;45.28;98762.34;1784518;78;21325;-58
2021/03/23 10:57:32;;;;;;;1.80;1.60;;;;;;;5.50;45.10;98774.94;1784528;77;21053;-59
2021/03/23 11:00:16;;;;;;;2.27;1.40;;;;;;;5.30;46.07;98772.14;1809608;77;21159;-58
2021/03/23 11:02:43;;;;;;;2.12;1.20;;;;;;;5.20;45.41;98769.61;1797557;77;21037;-59
2021/03/23 11:05:16;;;;;;;2.35;1.20;;;;;;;5.12;44.13;98768.70;1748536;80;21211;-60
2021/03/23 11:08:00;;;;;;;1.72;0.98;;;;;;;4.98;44.35;98768.27;1754878;80;21017;-59
2021/03/23 11:10:33;;;;;;;2.42;0.90;;;;;;;4.93;44.66;98762.62;1738782;79;21021;-59
2021/03/23 11:13:01;;;;;;;0.80;0.70;;;;;;;4.94;45.21;98769.56;1786703;77;20966;-61
2021/03/23 11:18:33;;;;;;;1.00;0.90;;;;;;;4.93;42.74;98771.85;1811232;78;22544;-59
2021/03/23 11:21:03;;;;;;;1.55;1.10;;;;;;;4.74;42.78;98782.57;1749824;80;21098;-58
2021/03/23 11:23:39;;;;;;;1.40;1.27;;;;;;;4.65;43.71;98783.94;1730255;82;21314;-58
2021/03/23 11:26:05;;;;;;;2.45;1.20;;;;;;;4.54;44.59;98782.34;1763755;80;20956;-61
2021/03/23 11:28:33;;;;;;;1.42;1.00;;;;;;;4.44;44.84;98782.90;1748017;82;21014;-59
2021/03/23 11:31:05;;;;;;;1.62;1.10;;;;;;;4.36;45.18;98781.01;1757021;80;21600;-60
2021/03/23 11:33:32;;;;;;;1.52;1.15;;;;;;;4.36;45.44;98794.17;1738322;81;20997;-61
2021/03/23 11:36:01;;;;;;;0.98;0.72;;;;;;;4.41;44.84;98788.46;1745720;81;21433;-60
2021/03/23 11:38:29;;;;;;;1.62;0.82;;;;;;;4.51;44.45;98786.59;1746189;81;21012;-59
2021/03/23 11:40:59;;;;;;;2.45;1.00;;;;;;;4.76;46.93;98787.19;1746160;81;21060;-59
2021/03/23 11:43:45;;;;;;;1.25;0.60;;;;;;;5.11;44.75;98794.23;1734063;81;21183;-57
2021/03/23 11:46:42;;;;;;;2.25;0.98;;;;;;;5.37;43.94;98790.34;1737920;82;21186;-57
2021/03/23 11:49:15;;;;;;;1.72;0.90;;;;;;;5.55;41.44;98780.58;1723455;82;21377;-56
2021/03/23 11:51:46;;;;;;;1.80;0.70;;;;;;;5.49;40.91;98790.42;1720479;82;21022;-56
2021/03/23 11:54:15;;;;;;;1.17;0.80;;;;;;;5.43;40.97;98791.03;1739637;81;21584;-58
2021/03/23 11:56:43;;;;;;;1.57;1.00;;;;;;;5.32;41.21;98792.62;1739668;80;21112;-58
2021/03/23 11:59:11;;;;;;;2.65;1.05;;;;;;;5.26;41.85;98791.91;1744360;81;21481;-60
2021/03/23 12:01:40;;;;;;;3.55;0.95;;;;;;;5.26;41.78;98787.95;1738130;81;21387;-59
2021/03/23 12:04:09;;;;;;;2.35;0.90;;;;;;;5.25;41.55;98791.55;1746383;82;21598;-59
2021/03/23 12:06:46;;;;;;;1.50;0.72;;;;;;;5.28;42.09;98786.81;1738893;82;21123;-58
2021/03/23 12:09:17;;;;;;;;;;;;;;;5.41;42.90;98793.00;1779760;80;21205;-60
2021/03/23 12:12:40;;;;;;;2.30;0.75;;;;;;;5.39;40.80;98793.16;1756341;81;20302;-58
2021/03/23 12:15:40;;;;;;;3.08;1.10;;;;;;;5.31;40.11;98793.59;1758453;81;21029;-59
2021/03/23 12:18:14;;;;;;;2.98;1.35;;;;;;;5.27;40.36;98794.38;1745457;81;21084;-59
2021/03/23 12:20:45;;;;;;;3.00;1.55;;;;;;;5.18;40.18;98802.38;1735740;81;21132;-58
2021/03/23 12:23:14;;;;;;;2.15;1.30;;;;;;;4.97;40.78;98795.63;1743364;81;21206;-58
2021/03/23 12:25:42;;;;;;;2.00;1.27;;;;;;;4.79;40.51;98801.88;1746018;81;21515;-56